createdAt,value
2018-12-25T00:00:09.591Z,82.19
2018-12-25T00:01:09.550Z,82.2
2018-12-25T00:02:09.556Z,82.26
2018-12-25T00:03:09.626Z,82.25
2018-12-25T00:04:09.532Z,82.21
2018-12-25T00:05:09.573Z,82.1
2018-12-25T00:06:09.774Z,81.98
2018-12-25T00:07:09.547Z,82.02
2018-12-25T00:08:09.538Z,81.92
2018-12-25T00:09:09.631Z,81.88
2018-12-25T00:10:09.551Z,82.06
2018-12-25T00:11:09.535Z,81.96
2018-12-25T00:12:09.614Z,82.15
2018-12-25T00:13:09.495Z,82.13
2018-12-25T00:14:09.542Z,82.38
2018-12-25T00:15:09.664Z,82.26
2018-12-25T00:16:09.533Z,82.19
2018-12-25T00:17:09.578Z,82.66
2018-12-25T00:18:09.527Z,82.3
2018-12-25T00:19:09.533Z,82.64
2018-12-25T00:20:09.511Z,82.74
2018-12-25T00:21:09.549Z,82.71
2018-12-25T00:22:09.293Z,82.61
2018-12-25T00:23:09.768Z,82.47
2018-12-25T00:24:09.650Z,82.53
2018-12-25T00:25:09.491Z,82.74
2018-12-25T00:26:10.312Z,82.92
2018-12-25T00:27:09.736Z,82.76
2018-12-25T00:28:09.660Z,82.9
2018-12-25T00:29:09.831Z,83.09
2018-12-25T00:30:09.605Z,83.08
2018-12-25T00:31:09.571Z,83.04
2018-12-25T00:32:09.555Z,83.04
2018-12-25T00:33:09.631Z,83.02
2018-12-25T00:34:09.778Z,82.97
2018-12-25T00:35:09.549Z,82.93
2018-12-25T00:36:09.533Z,82.27
2018-12-25T00:37:09.996Z,82.43
2018-12-25T00:38:09.526Z,82.41
2018-12-25T00:39:09.515Z,82.41
2018-12-25T00:40:09.705Z,82.37
2018-12-25T00:41:09.656Z,82.28
2018-12-25T00:42:09.517Z,82.16
2018-12-25T00:43:09.772Z,82.02
2018-12-25T00:44:09.740Z,81.97
2018-12-25T00:45:09.667Z,82.03
2018-12-25T00:46:09.552Z,82.14
2018-12-25T00:47:09.495Z,82.05
2018-12-25T00:48:10.033Z,82.04
2018-12-25T00:49:15.210Z,82.18
2018-12-25T00:50:09.702Z,82.2
2018-12-25T00:51:09.482Z,82.32
2018-12-25T00:52:09.347Z,82.3
2018-12-25T00:53:09.664Z,82.31
2018-12-25T00:54:09.555Z,82.36
2018-12-25T00:55:09.776Z,82.27
2018-12-25T00:56:09.631Z,82.26
2018-12-25T00:57:09.881Z,82.31
2018-12-25T00:58:09.806Z,82.29
2018-12-25T00:59:09.559Z,82.33
2018-12-25T01:00:10.286Z,82.37
2018-12-25T01:01:09.677Z,82.42
2018-12-25T01:02:09.737Z,82.99
2018-12-25T01:03:09.691Z,82.98
2018-12-25T01:04:09.892Z,82.87
2018-12-25T01:05:09.438Z,82.98
2018-12-25T01:06:09.450Z,82.83
2018-12-25T01:07:10.072Z,82.9
2018-12-25T01:08:09.713Z,82.95
2018-12-25T01:09:09.462Z,83.19
2018-12-25T01:10:09.480Z,83.25
2018-12-25T01:11:09.578Z,82.68
2018-12-25T01:12:09.455Z,83.09
2018-12-25T01:13:09.458Z,83.54
2018-12-25T01:14:09.919Z,83.28
2018-12-25T01:15:09.864Z,83.32
2018-12-25T01:16:09.461Z,83.15
2018-12-25T01:17:09.432Z,83.39
2018-12-25T01:18:09.487Z,83.3
2018-12-25T01:19:09.830Z,83.36
2018-12-25T01:20:09.584Z,83.56
2018-12-25T01:21:09.447Z,83.28
2018-12-25T01:22:09.589Z,83.16
2018-12-25T01:23:10.265Z,82.98
2018-12-25T01:24:09.633Z,82.98
2018-12-25T01:25:09.476Z,83.18
2018-12-25T01:26:09.471Z,83.47
2018-12-25T01:27:09.456Z,83.18
2018-12-25T01:28:09.735Z,83.14
2018-12-25T01:29:09.644Z,83.04
2018-12-25T01:30:09.717Z,82.84
2018-12-25T01:31:09.758Z,82.97
2018-12-25T01:32:09.674Z,83.63
2018-12-25T01:33:09.596Z,84.01
2018-12-25T01:34:09.893Z,83.9
2018-12-25T01:35:10.246Z,83.74
2018-12-25T01:36:09.413Z,83.63
2018-12-25T01:37:09.768Z,83.47
2018-12-25T01:38:09.593Z,83.79
2018-12-25T01:39:09.404Z,83.78
2018-12-25T01:40:09.397Z,83.57
2018-12-25T01:41:09.422Z,83.43
2018-12-25T01:42:09.635Z,83.91
2018-12-25T01:43:09.542Z,83.98
2018-12-25T01:44:09.448Z,83.87
2018-12-25T01:45:09.470Z,83.5
2018-12-25T01:46:09.435Z,83.41
2018-12-25T01:47:09.389Z,83.25
2018-12-25T01:48:09.404Z,83.41
2018-12-25T01:49:09.421Z,83.67
2018-12-25T01:50:09.449Z,83.9
2018-12-25T01:51:09.484Z,83.74
2018-12-25T01:52:09.517Z,83.71
2018-12-25T01:53:09.413Z,83.67
2018-12-25T01:54:09.489Z,83.77
2018-12-25T01:55:09.440Z,83.79
2018-12-25T01:56:09.479Z,83.66
2018-12-25T01:57:09.469Z,83.75
2018-12-25T01:58:09.544Z,83.77
2018-12-25T01:59:09.535Z,83.72
2018-12-25T02:00:09.601Z,83.84
2018-12-25T02:01:09.443Z,83.62
2018-12-25T02:02:09.756Z,83.52
2018-12-25T02:03:09.687Z,83.55
2018-12-25T02:04:09.502Z,83.62
2018-12-25T02:05:09.493Z,83.48
2018-12-25T02:06:09.417Z,83.42
2018-12-25T02:07:09.747Z,83.2
2018-12-25T02:08:09.630Z,83.14
2018-12-25T02:09:09.548Z,83.09
2018-12-25T02:10:09.697Z,83.17
2018-12-25T02:11:09.804Z,83.17
2018-12-25T02:12:09.691Z,83.11
2018-12-25T02:13:09.586Z,83.09
2018-12-25T02:14:09.531Z,83.11
2018-12-25T02:15:09.522Z,83.01
2018-12-25T02:16:09.623Z,83
2018-12-25T02:17:09.475Z,83.03
2018-12-25T02:18:09.430Z,83.18
2018-12-25T02:19:10.067Z,83
2018-12-25T02:20:09.768Z,82.99
2018-12-25T02:21:09.519Z,83.66
2018-12-25T02:22:09.528Z,83.71
2018-12-25T02:23:09.394Z,83.69
2018-12-25T02:24:09.491Z,83.43
2018-12-25T02:25:09.443Z,83.56
2018-12-25T02:26:09.402Z,83.41
2018-12-25T02:27:09.886Z,83.34
2018-12-25T02:28:09.569Z,83.25
2018-12-25T02:29:09.795Z,83.08
2018-12-25T02:30:09.826Z,83.09
2018-12-25T02:31:09.467Z,83.11
2018-12-25T02:32:09.614Z,83.03
2018-12-25T02:33:09.565Z,83.14
2018-12-25T02:34:10.157Z,83.35
2018-12-25T02:35:09.619Z,83.08
2018-12-25T02:36:09.441Z,83.22
2018-12-25T02:37:09.764Z,83.5
2018-12-25T02:38:09.395Z,83.72
2018-12-25T02:39:09.646Z,83.66
2018-12-25T02:40:09.382Z,83.68
2018-12-25T02:41:09.302Z,83.57
2018-12-25T02:42:09.424Z,83.69
2018-12-25T02:43:09.791Z,83.68
2018-12-25T02:44:09.679Z,83.71
2018-12-25T02:45:09.422Z,83.64
2018-12-25T02:46:09.722Z,83.58
2018-12-25T02:47:09.607Z,83.6
2018-12-25T02:48:09.417Z,83.63
2018-12-25T02:49:09.482Z,83.65
2018-12-25T02:50:09.715Z,83.56
2018-12-25T02:51:09.872Z,83.52
2018-12-25T02:52:09.300Z,83.55
2018-12-25T02:53:09.447Z,83.34
2018-12-25T02:54:09.473Z,83.02
2018-12-25T02:55:09.459Z,83.13
2018-12-25T02:56:09.584Z,83.12
2018-12-25T02:57:09.702Z,83.09
2018-12-25T02:58:09.364Z,82.98
2018-12-25T02:59:09.407Z,82.93
2018-12-25T03:00:10.366Z,83.21
2018-12-25T03:01:09.603Z,83.16
2018-12-25T03:02:09.851Z,83.09
2018-12-25T03:03:09.340Z,83.16
2018-12-25T03:04:09.512Z,83.19
2018-12-25T03:05:09.300Z,83.2
2018-12-25T03:06:09.570Z,83.12
2018-12-25T03:07:09.640Z,83.02
2018-12-25T03:08:09.333Z,83.07
2018-12-25T03:09:09.391Z,83.12
2018-12-25T03:10:09.594Z,83.33
2018-12-25T03:11:09.296Z,83.49
2018-12-25T03:12:09.315Z,83.44
2018-12-25T03:13:09.348Z,83.21
2018-12-25T03:14:09.681Z,83.12
2018-12-25T03:15:09.347Z,83.07
2018-12-25T03:16:09.538Z,82.86
2018-12-25T03:17:09.307Z,82.69
2018-12-25T03:18:09.416Z,82.75
2018-12-25T03:19:09.601Z,82.86
2018-12-25T03:20:09.323Z,82.85
2018-12-25T03:21:09.270Z,82.83
2018-12-25T03:22:09.323Z,82.94
2018-12-25T03:23:09.558Z,82.87
2018-12-25T03:24:09.357Z,82.67
2018-12-25T03:25:09.250Z,82.71
2018-12-25T03:26:09.252Z,82.86
2018-12-25T03:27:09.295Z,82.95
2018-12-25T03:28:09.244Z,82.99
2018-12-25T03:29:09.247Z,82.86
2018-12-25T03:30:09.322Z,82.82
2018-12-25T03:31:09.283Z,82.8
2018-12-25T03:32:09.307Z,82.83
2018-12-25T03:33:09.319Z,82.58
2018-12-25T03:34:09.269Z,82.82
2018-12-25T03:35:09.378Z,83.03
2018-12-25T03:36:09.237Z,82.94
2018-12-25T03:37:09.280Z,83.19
2018-12-25T03:38:09.197Z,83.37
2018-12-25T03:39:09.257Z,83.56
2018-12-25T03:40:09.250Z,83.65
2018-12-25T03:41:09.660Z,83.61
2018-12-25T03:42:09.512Z,83.46
2018-12-25T03:43:09.591Z,83.88
2018-12-25T03:44:09.503Z,83.84
2018-12-25T03:45:09.539Z,83.73
2018-12-25T03:46:09.516Z,83.65
2018-12-25T03:47:09.675Z,83.71
2018-12-25T03:48:09.627Z,83.58
2018-12-25T03:49:09.705Z,83.56
2018-12-25T03:50:11.492Z,83.48
2018-12-25T03:51:09.466Z,83.39
2018-12-25T03:52:09.213Z,83.38
2018-12-25T03:53:09.808Z,83.34
2018-12-25T03:54:09.713Z,83.11
2018-12-25T03:55:09.198Z,83.13
2018-12-25T03:56:09.413Z,83.14
2018-12-25T03:57:09.339Z,83.1
2018-12-25T03:58:09.376Z,83.07
2018-12-25T03:59:09.211Z,83.03
2018-12-25T04:00:09.215Z,83.07
2018-12-25T04:01:09.214Z,83.22
2018-12-25T04:02:09.580Z,83.21
2018-12-25T04:03:09.594Z,83.2
2018-12-25T04:04:09.235Z,83.04
2018-12-25T04:05:09.239Z,83.02
2018-12-25T04:06:09.793Z,82.77
2018-12-25T04:07:09.675Z,82.93
2018-12-25T04:08:09.427Z,82.99
2018-12-25T04:09:09.278Z,83.24
2018-12-25T04:10:09.555Z,83.07
2018-12-25T04:11:09.269Z,83.12
2018-12-25T04:12:09.299Z,83.11
2018-12-25T04:13:09.363Z,82.95
2018-12-25T04:14:10.357Z,83.02
2018-12-25T04:15:09.321Z,83.07
2018-12-25T04:16:09.566Z,83.39
2018-12-25T04:17:09.200Z,83.18
2018-12-25T04:18:09.536Z,83.17
2018-12-25T04:19:09.272Z,83.19
2018-12-25T04:20:09.332Z,83.22
2018-12-25T04:21:09.426Z,83.2
2018-12-25T04:22:09.357Z,83.2
2018-12-25T04:23:09.272Z,83.2
2018-12-25T04:24:09.611Z,83.02
2018-12-25T04:25:09.417Z,83.1
2018-12-25T04:26:09.195Z,83.11
2018-12-25T04:27:09.165Z,83.04
2018-12-25T04:28:09.340Z,82.91
2018-12-25T04:29:09.448Z,83.02
2018-12-25T04:30:09.321Z,83.06
2018-12-25T04:31:09.486Z,83.05
2018-12-25T04:32:09.399Z,83.12
2018-12-25T04:33:09.145Z,83.12
2018-12-25T04:34:09.276Z,82.92
2018-12-25T04:35:09.434Z,82.92
2018-12-25T04:36:09.530Z,82.9
2018-12-25T04:37:09.686Z,82.8
2018-12-25T04:38:09.862Z,82.79
2018-12-25T04:39:09.367Z,82.92
2018-12-25T04:40:09.255Z,82.89
2018-12-25T04:41:09.362Z,82.85
2018-12-25T04:42:09.263Z,82.82
2018-12-25T04:43:09.154Z,82.74
2018-12-25T04:44:09.182Z,82.66
2018-12-25T04:45:09.326Z,82.67
2018-12-25T04:46:09.378Z,82.57
2018-12-25T04:47:09.354Z,82.52
2018-12-25T04:48:09.425Z,82.44
2018-12-25T04:49:09.556Z,82.5
2018-12-25T04:50:09.949Z,82.49
2018-12-25T04:51:09.346Z,82.48
2018-12-25T04:52:09.422Z,82.52
2018-12-25T04:53:09.142Z,82.49
2018-12-25T04:54:09.397Z,82.52
2018-12-25T04:55:09.236Z,82.52
2018-12-25T04:56:09.621Z,82.58
2018-12-25T04:57:09.215Z,82.56
2018-12-25T04:58:09.360Z,82.43
2018-12-25T04:59:09.385Z,82.39
2018-12-25T05:00:09.224Z,82.33
2018-12-25T05:01:09.350Z,82.48
2018-12-25T05:02:09.154Z,82.62
2018-12-25T05:03:09.120Z,82.68
2018-12-25T05:04:10.238Z,82.6
2018-12-25T05:05:09.158Z,82.48
2018-12-25T05:06:09.346Z,82.68
2018-12-25T05:07:09.202Z,82.69
2018-12-25T05:08:09.111Z,82.77
2018-12-25T05:09:09.142Z,82.69
2018-12-25T05:10:09.134Z,82.67
2018-12-25T05:11:09.114Z,82.75
2018-12-25T05:12:09.219Z,82.8
2018-12-25T05:13:09.464Z,82.84
2018-12-25T05:14:09.116Z,82.85
2018-12-25T05:15:09.154Z,82.88
2018-12-25T05:16:09.114Z,82.8
2018-12-25T05:17:09.154Z,82.73
2018-12-25T05:18:09.309Z,82.78
2018-12-25T05:19:09.064Z,82.62
2018-12-25T05:20:09.203Z,82.72
2018-12-25T05:21:09.233Z,82.79
2018-12-25T05:22:09.140Z,82.85
2018-12-25T05:23:09.197Z,82.84
2018-12-25T05:24:09.409Z,82.75
2018-12-25T05:25:09.330Z,82.6
2018-12-25T05:26:09.280Z,82.69
2018-12-25T05:27:09.612Z,82.77
2018-12-25T05:28:09.149Z,82.82
2018-12-25T05:29:09.150Z,82.74
2018-12-25T05:30:09.243Z,82.55
2018-12-25T05:31:09.093Z,82.5
2018-12-25T05:32:09.698Z,82.47
2018-12-25T05:33:09.052Z,82.51
2018-12-25T05:34:09.628Z,82.47
2018-12-25T05:35:09.136Z,82.47
2018-12-25T05:36:09.484Z,82.56
2018-12-25T05:37:09.338Z,82.6
2018-12-25T05:38:09.109Z,82.63
2018-12-25T05:39:09.267Z,82.72
2018-12-25T05:40:10.143Z,82.73
2018-12-25T05:41:09.231Z,82.83
2018-12-25T05:42:09.594Z,82.84
2018-12-25T05:43:09.194Z,82.96
2018-12-25T05:44:09.334Z,82.9
2018-12-25T05:45:09.153Z,83.03
2018-12-25T05:46:10.301Z,82.9
2018-12-25T05:47:09.210Z,82.8
2018-12-25T05:48:09.227Z,82.76
2018-12-25T05:49:09.051Z,82.7
2018-12-25T05:50:09.087Z,82.62
2018-12-25T05:51:09.183Z,82.41
2018-12-25T05:52:09.150Z,82.33
2018-12-25T05:53:09.020Z,82.37
2018-12-25T05:54:09.220Z,82.46
2018-12-25T05:55:09.120Z,82.58
2018-12-25T05:56:09.414Z,82.42
2018-12-25T05:57:13.081Z,82.46
2018-12-25T05:58:09.314Z,82.22
2018-12-25T05:59:09.251Z,82.24
2018-12-25T06:00:09.330Z,82.28
2018-12-25T06:01:09.135Z,82.5
2018-12-25T06:02:09.189Z,82.47
2018-12-25T06:03:09.404Z,82.51
2018-12-25T06:04:09.187Z,82.55
2018-12-25T06:05:09.041Z,82.45
2018-12-25T06:06:09.034Z,82.38
2018-12-25T06:07:09.202Z,82.38
2018-12-25T06:08:09.229Z,82.53
2018-12-25T06:09:09.160Z,82.59
2018-12-25T06:10:09.061Z,82.69
2018-12-25T06:11:09.274Z,82.68
2018-12-25T06:12:09.261Z,82.68
2018-12-25T06:13:09.430Z,82.61
2018-12-25T06:14:09.208Z,82.55
2018-12-25T06:15:09.100Z,82.42
2018-12-25T06:16:09.417Z,82.28
2018-12-25T06:17:09.452Z,82.33
2018-12-25T06:18:09.397Z,82.38
2018-12-25T06:19:09.102Z,82.26
2018-12-25T06:20:09.290Z,82.14
2018-12-25T06:21:09.327Z,82.08
2018-12-25T06:22:09.111Z,81.93
2018-12-25T06:23:09.192Z,81.87
2018-12-25T06:24:09.882Z,81.84
2018-12-25T06:25:09.157Z,81.77
2018-12-25T06:26:09.180Z,81.77
2018-12-25T06:27:09.196Z,81.57
2018-12-25T06:28:09.362Z,81.72
2018-12-25T06:29:09.185Z,81.67
2018-12-25T06:30:09.053Z,81.88
2018-12-25T06:31:09.069Z,81.74
2018-12-25T06:32:09.854Z,81.83
2018-12-25T06:33:09.069Z,81.83
2018-12-25T06:34:09.084Z,81.96
2018-12-25T06:35:09.193Z,81.9
2018-12-25T06:36:09.692Z,81.91
2018-12-25T06:37:09.171Z,81.97
2018-12-25T06:38:09.409Z,82.06
2018-12-25T06:39:08.764Z,82.1
2018-12-25T06:40:09.534Z,82.18
2018-12-25T06:41:09.066Z,82.18
2018-12-25T06:42:09.103Z,82.1
2018-12-25T06:43:09.578Z,82.11
2018-12-25T06:44:09.190Z,82.08
2018-12-25T06:45:09.046Z,82.13
2018-12-25T06:46:09.077Z,82.34
2018-12-25T06:47:09.059Z,82.29
2018-12-25T06:48:09.044Z,82.26
2018-12-25T06:49:09.049Z,82.06
2018-12-25T06:50:08.987Z,82.06
2018-12-25T06:51:09.103Z,82.06
2018-12-25T06:52:09.105Z,82.13
2018-12-25T06:53:09.027Z,82.1
2018-12-25T06:54:09.087Z,82.1
2018-12-25T06:55:09.095Z,82.09
2018-12-25T06:56:09.057Z,82.11
2018-12-25T06:57:09.101Z,82.24
2018-12-25T06:58:09.048Z,82.32
2018-12-25T06:59:09.087Z,82.35
2018-12-25T07:00:09.364Z,82.39
2018-12-25T07:01:09.083Z,82.43
2018-12-25T07:02:08.952Z,82.32
2018-12-25T07:03:09.267Z,82.27
2018-12-25T07:04:09.053Z,82.22
2018-12-25T07:05:09.370Z,82.36
2018-12-25T07:06:09.039Z,82.47
2018-12-25T07:07:09.374Z,82.5
2018-12-25T07:08:09.199Z,82.55
2018-12-25T07:09:08.991Z,82.58
2018-12-25T07:10:09.223Z,82.58
2018-12-25T07:11:08.969Z,82.55
2018-12-25T07:12:09.030Z,82.49
2018-12-25T07:13:09.037Z,82.63
2018-12-25T07:14:09.134Z,82.64
2018-12-25T07:15:09.712Z,82.46
2018-12-25T07:16:08.993Z,82.42
2018-12-25T07:17:09.018Z,82.33
2018-12-25T07:18:09.422Z,82.59
2018-12-25T07:19:09.124Z,82.66
2018-12-25T07:20:09.393Z,82.85
2018-12-25T07:21:12.613Z,82.97
2018-12-25T07:22:09.113Z,83
2018-12-25T07:23:09.147Z,83.19
2018-12-25T07:24:09.872Z,83.25
2018-12-25T07:25:09.345Z,83.38
2018-12-25T07:26:08.989Z,83.49
2018-12-25T07:27:09.151Z,83.47
2018-12-25T07:28:09.097Z,83.58
2018-12-25T07:29:09.026Z,83.64
2018-12-25T07:30:09.341Z,83.63
2018-12-25T07:31:09.113Z,83.68
2018-12-25T07:32:09.653Z,83.65
2018-12-25T07:33:08.957Z,83.7
2018-12-25T07:34:09.318Z,83.7
2018-12-25T07:35:09.097Z,83.56
2018-12-25T07:36:09.688Z,83.5
2018-12-25T07:37:09.273Z,83.58
2018-12-25T07:38:09.227Z,83.48
2018-12-25T07:39:09.123Z,83.4
2018-12-25T07:40:09.347Z,83.41
2018-12-25T07:41:09.033Z,83.5
2018-12-25T07:42:09.053Z,83.45
2018-12-25T07:43:09.131Z,83.43
2018-12-25T07:44:09.033Z,83.33
2018-12-25T07:45:09.038Z,83.12
2018-12-25T07:46:09.043Z,83
2018-12-25T07:47:11.425Z,83.03
2018-12-25T07:48:09.041Z,82.98
2018-12-25T07:49:09.034Z,82.95
2018-12-25T07:50:09.143Z,83.01
2018-12-25T07:51:09.040Z,83.13
2018-12-25T07:52:08.901Z,83.01
2018-12-25T07:53:08.874Z,82.98
2018-12-25T07:54:08.958Z,82.94
2018-12-25T07:55:08.903Z,82.9
2018-12-25T07:56:09.196Z,82.85
2018-12-25T07:57:08.873Z,82.77
2018-12-25T07:58:09.113Z,82.76
2018-12-25T07:59:08.984Z,82.84
2018-12-25T08:00:09.019Z,82.84
2018-12-25T08:01:08.998Z,82.92
2018-12-25T08:02:08.980Z,83.04
2018-12-25T08:03:09.053Z,82.78
2018-12-25T08:04:08.891Z,82.87
2018-12-25T08:05:09.096Z,82.78
2018-12-25T08:06:09.075Z,82.78
2018-12-25T08:07:09.098Z,82.91
2018-12-25T08:08:09.056Z,82.9
2018-12-25T08:09:09.022Z,82.95
2018-12-25T08:10:08.886Z,83.03
2018-12-25T08:11:09.333Z,83.12
2018-12-25T08:12:09.086Z,83.3
2018-12-25T08:13:09.198Z,83.55
2018-12-25T08:14:09.061Z,83.5
2018-12-25T08:15:08.858Z,83.51
2018-12-25T08:16:09.249Z,83.61
2018-12-25T08:17:09.017Z,83.73
2018-12-25T08:18:09.161Z,83.82
2018-12-25T08:19:09.128Z,83.97
2018-12-25T08:20:09.070Z,83.93
2018-12-25T08:21:09.471Z,83.88
2018-12-25T08:22:08.915Z,83.76
2018-12-25T08:23:08.896Z,84.04
2018-12-25T08:24:08.818Z,84.02
2018-12-25T08:25:08.817Z,83.75
2018-12-25T08:26:09.028Z,84.07
2018-12-25T08:27:08.849Z,84.16
2018-12-25T08:28:08.842Z,84.2
2018-12-25T08:29:09.089Z,84.27
2018-12-25T08:30:09.009Z,84.45
2018-12-25T08:31:08.999Z,84.43
2018-12-25T08:32:08.851Z,84.81
2018-12-25T08:33:08.826Z,84.96
2018-12-25T08:34:08.854Z,84.97
2018-12-25T08:35:08.851Z,84.95
2018-12-25T08:36:08.844Z,84.71
2018-12-25T08:37:09.052Z,84.87
2018-12-25T08:38:08.998Z,84.66
2018-12-25T08:39:09.193Z,84.93
2018-12-25T08:40:09.041Z,84.99
2018-12-25T08:41:09.056Z,85.37
2018-12-25T08:42:09.213Z,85.49
2018-12-25T08:43:08.788Z,85.28
2018-12-25T08:44:08.864Z,85.31
2018-12-25T08:45:09.647Z,85.18
2018-12-25T08:46:08.817Z,85.62
2018-12-25T08:47:08.803Z,85.64
2018-12-25T08:48:09.526Z,86.16
2018-12-25T08:49:08.982Z,86.32
2018-12-25T08:50:09.073Z,86.75
2018-12-25T08:51:09.251Z,86.54
2018-12-25T08:52:08.964Z,86.37
2018-12-25T08:53:09.145Z,85.77
2018-12-25T08:54:09.237Z,85.93
2018-12-25T08:55:09.048Z,85.7
2018-12-25T08:56:09.138Z,85.66
2018-12-25T08:57:09.036Z,85.87
2018-12-25T08:58:08.797Z,86.08
2018-12-25T08:59:08.794Z,85.88
2018-12-25T09:00:09.597Z,86.14
2018-12-25T09:01:09.132Z,85.78
2018-12-25T09:02:08.867Z,86.37
2018-12-25T09:03:08.817Z,86.72
2018-12-25T09:04:08.860Z,86.61
2018-12-25T09:05:09.209Z,86.45
2018-12-25T09:06:09.613Z,86.16
2018-12-25T09:07:09.022Z,86.08
2018-12-25T09:08:08.823Z,86.31
2018-12-25T09:09:09.122Z,86.35
2018-12-25T09:10:08.829Z,86.39
2018-12-25T09:11:08.762Z,86.26
2018-12-25T09:12:09.130Z,86.72
2018-12-25T09:13:09.165Z,86.45
2018-12-25T09:14:08.834Z,86.79
2018-12-25T09:15:08.874Z,86.28
2018-12-25T09:16:09.053Z,86.29
2018-12-25T09:17:09.290Z,86.85
2018-12-25T09:18:08.790Z,86.45
2018-12-25T09:19:08.953Z,86.54
2018-12-25T09:20:09.178Z,86.2
2018-12-25T09:21:08.801Z,85.98
2018-12-25T09:22:08.772Z,86.84
2018-12-25T09:23:08.792Z,86.35
2018-12-25T09:24:08.864Z,86.27
2018-12-25T09:25:10.994Z,86.4
2018-12-25T09:26:09.084Z,86.42
2018-12-25T09:27:08.990Z,86.68
2018-12-25T09:28:09.134Z,86.28
2018-12-25T09:29:09.113Z,86.06
2018-12-25T09:30:09.106Z,86.43
2018-12-25T09:31:08.830Z,86.3
2018-12-25T09:32:09.347Z,86.32
2018-12-25T09:33:09.102Z,86.32
2018-12-25T09:34:08.787Z,86.49
2018-12-25T09:35:08.755Z,86.45
2018-12-25T09:36:08.749Z,86.54
2018-12-25T09:37:08.739Z,86.48
2018-12-25T09:38:08.779Z,86.75
2018-12-25T09:39:09.045Z,86.89
2018-12-25T09:40:08.553Z,86.89
2018-12-25T09:41:08.768Z,87.03
2018-12-25T09:42:09.498Z,87.02
2018-12-25T09:43:08.732Z,86.85
2018-12-25T09:44:08.806Z,86.76
2018-12-25T09:45:08.741Z,86.67
2018-12-25T09:46:08.910Z,86.78
2018-12-25T09:47:08.739Z,86.49
2018-12-25T09:48:13.831Z,86.44
2018-12-25T09:49:09.131Z,86.29
2018-12-25T09:50:09.336Z,86.51
2018-12-25T09:51:09.130Z,86.65
2018-12-25T09:52:08.992Z,86.31
2018-12-25T09:53:08.708Z,86.23
2018-12-25T09:54:08.754Z,85.82
2018-12-25T09:55:09.057Z,85.81
2018-12-25T09:57:08.717Z,85.88
2018-12-25T09:58:10.236Z,85.89
2018-12-25T09:59:08.864Z,85.85
2018-12-25T10:00:08.825Z,85.97
2018-12-25T10:01:08.713Z,86.1
2018-12-25T10:02:08.698Z,86.06
2018-12-25T10:03:08.707Z,85.96
2018-12-25T10:04:08.683Z,86.32
2018-12-25T10:05:09.045Z,86.36
2018-12-25T10:06:08.682Z,86.22
2018-12-25T10:07:08.669Z,86.21
2018-12-25T10:08:11.838Z,86.09
2018-12-25T10:09:08.751Z,85.87
2018-12-25T10:10:08.708Z,85.91
2018-12-25T10:11:09.034Z,85.7
2018-12-25T10:12:08.738Z,85.67
2018-12-25T10:13:08.766Z,85.66
2018-12-25T10:14:08.840Z,85.52
2018-12-25T10:15:09.155Z,85.63
2018-12-25T10:16:08.701Z,85.78
2018-12-25T10:17:09.052Z,85.45
2018-12-25T10:18:09.076Z,85.68
2018-12-25T10:19:10.031Z,85.47
2018-12-25T10:20:08.777Z,85.52
2018-12-25T10:21:08.912Z,85.33
2018-12-25T10:22:08.779Z,85.14
2018-12-25T10:23:08.694Z,84.97
2018-12-25T10:24:09.065Z,84.99
2018-12-25T10:25:08.998Z,85.1
2018-12-25T10:26:12.714Z,84.75
2018-12-25T10:27:09.142Z,85
2018-12-25T10:28:08.820Z,84.25
2018-12-25T10:29:08.996Z,84.5
2018-12-25T10:30:08.682Z,84.4
2018-12-25T10:31:08.889Z,84.3
2018-12-25T10:32:09.092Z,84.26
2018-12-25T10:33:08.801Z,84.64
2018-12-25T10:34:08.658Z,84.99
2018-12-25T10:35:08.645Z,85.23
2018-12-25T10:36:08.620Z,84.72
2018-12-25T10:37:08.825Z,84.99
2018-12-25T10:38:08.651Z,84.44
2018-12-25T10:39:09.169Z,84.26
2018-12-25T10:40:09.034Z,84.11
2018-12-25T10:41:08.738Z,84.32
2018-12-25T10:42:08.798Z,84.09
2018-12-25T10:43:08.811Z,83.98
2018-12-25T10:44:08.786Z,83.83
2018-12-25T10:45:08.818Z,83.71
2018-12-25T10:46:08.654Z,83.66
2018-12-25T10:47:08.627Z,83.79
2018-12-25T10:48:08.805Z,83.91
2018-12-25T10:49:08.967Z,83.98
2018-12-25T10:50:08.695Z,83.72
2018-12-25T10:51:08.869Z,83.62
2018-12-25T10:52:12.183Z,83.68
2018-12-25T10:53:08.651Z,83.36
2018-12-25T10:54:08.685Z,83.46
2018-12-25T10:55:08.743Z,83.17
2018-12-25T10:56:08.769Z,82.93
2018-12-25T10:57:11.576Z,82.51
2018-12-25T10:58:09.106Z,82.75
2018-12-25T10:59:09.412Z,82.53
2018-12-25T11:00:08.799Z,82.4
2018-12-25T11:01:08.750Z,82.6
2018-12-25T11:02:08.726Z,82.69
2018-12-25T11:03:08.867Z,82.94
2018-12-25T11:04:09.829Z,82.82
2018-12-25T11:06:14.084Z,82.61
2018-12-25T11:07:09.034Z,82.79
2018-12-25T11:08:08.765Z,83.11
2018-12-25T11:09:08.689Z,83.31
2018-12-25T11:10:08.642Z,83.3
2018-12-25T11:11:08.734Z,82.79
2018-12-25T11:12:09.446Z,82.7
2018-12-25T11:13:08.728Z,82.26
2018-12-25T11:14:08.658Z,81.71
2018-12-25T11:15:08.677Z,81.76
2018-12-25T11:16:09.050Z,81.79
2018-12-25T11:17:09.578Z,82.02
2018-12-25T11:18:08.733Z,81.47
2018-12-25T11:19:08.593Z,81.48
2018-12-25T11:20:11.982Z,81.14
2018-12-25T11:21:08.624Z,81.26
2018-12-25T11:22:09.433Z,81.18
2018-12-25T11:23:08.732Z,80.9
2018-12-25T11:24:08.920Z,80.94
2018-12-25T11:25:08.849Z,81.28
2018-12-25T11:26:08.842Z,81.18
2018-12-25T11:27:09.412Z,80.26
2018-12-25T11:28:08.626Z,79.7
2018-12-25T11:29:09.395Z,80.14
2018-12-25T11:30:08.706Z,80.23
2018-12-25T11:31:08.591Z,80.15
2018-12-25T11:32:08.734Z,80.12
2018-12-25T11:33:09.390Z,79.98
2018-12-25T11:34:09.018Z,79.57
2018-12-25T11:35:08.766Z,79.3
2018-12-25T11:36:08.607Z,79.3
2018-12-25T11:37:08.611Z,78.65
2018-12-25T11:38:08.633Z,78.77
2018-12-25T11:39:08.567Z,78.63
2018-12-25T11:40:08.810Z,79.07
2018-12-25T11:41:08.841Z,78.84
2018-12-25T11:42:08.603Z,78.94
2018-12-25T11:43:08.531Z,79.24
2018-12-25T11:44:08.583Z,79.25
2018-12-25T11:45:08.707Z,79.15
2018-12-25T11:46:08.614Z,78.95
2018-12-25T11:47:08.741Z,79.03
2018-12-25T11:48:08.578Z,78.77
2018-12-25T11:49:08.642Z,78.92
2018-12-25T11:50:08.621Z,78.94
2018-12-25T11:51:08.620Z,79.05
2018-12-25T11:52:08.558Z,78.6
2018-12-25T11:53:08.530Z,78.9
2018-12-25T11:54:08.555Z,78.86
2018-12-25T11:55:08.634Z,78.99
2018-12-25T11:56:08.515Z,78.94
2018-12-25T11:57:08.625Z,79.07
2018-12-25T11:58:08.725Z,78.87
2018-12-25T11:59:08.586Z,78.63
2018-12-25T12:00:08.705Z,77.71
2018-12-25T12:01:08.659Z,78.1
2018-12-25T12:02:17.506Z,78.88
2018-12-25T12:03:09.275Z,77.95
2018-12-25T12:04:15.690Z,77.89
2018-12-25T12:05:11.542Z,78.84
2018-12-25T12:06:09.971Z,79.13
2018-12-25T12:07:11.507Z,78.44
2018-12-25T12:08:08.779Z,78.59
2018-12-25T12:09:09.551Z,78.81
2018-12-25T12:10:11.659Z,78.5
2018-12-25T12:11:09.382Z,78.65
2018-12-25T12:12:08.506Z,79.07
2018-12-25T12:13:08.656Z,78.49
2018-12-25T12:14:08.500Z,78.84
2018-12-25T12:15:08.574Z,78.8
2018-12-25T12:16:08.500Z,78.95
2018-12-25T12:17:08.474Z,78.98
2018-12-25T12:18:08.693Z,78.23
2018-12-25T12:19:08.663Z,78.28
2018-12-25T12:20:08.850Z,78.3
2018-12-25T12:21:08.747Z,78.63
2018-12-25T12:22:09.013Z,78.43
2018-12-25T12:23:09.330Z,78.6
2018-12-25T12:24:08.729Z,78.19
2018-12-25T12:25:08.743Z,78.43
2018-12-25T12:26:08.709Z,78.02
2018-12-25T12:27:09.020Z,77.94
2018-12-25T12:28:08.713Z,78.44
2018-12-25T12:29:08.545Z,78.45
2018-12-25T12:30:08.944Z,77.29
2018-12-25T12:31:08.641Z,77.87
2018-12-25T12:32:09.622Z,78.06
2018-12-25T12:33:09.870Z,78.07
2018-12-25T12:34:13.356Z,77.99
2018-12-25T12:35:10.274Z,78.18
2018-12-25T12:36:14.577Z,77.94
2018-12-25T12:39:11.171Z,77.93
2018-12-25T12:40:09.351Z,78.32
2018-12-25T12:41:10.146Z,78.62
2018-12-25T12:42:09.291Z,78.29
2018-12-25T12:44:08.628Z,77.66
2018-12-25T12:45:10.478Z,77.17
2018-12-25T12:46:08.716Z,76.69
2018-12-25T12:47:15.948Z,76.91
2018-12-25T12:48:13.585Z,76.9
2018-12-25T12:49:33.773Z,77.23
2018-12-25T12:50:11.526Z,77.43
2018-12-25T12:51:12.160Z,77.62
2018-12-25T12:52:09.168Z,76.54
2018-12-25T12:53:11.040Z,77.56
2018-12-25T12:54:09.331Z,77.27
2018-12-25T12:55:13.100Z,76.98
2018-12-25T12:56:23.078Z,76.96
2018-12-25T12:57:14.908Z,76.32
2018-12-25T12:58:14.586Z,76.37
2018-12-25T12:59:15.049Z,76.2
2018-12-25T13:00:15.608Z,75.4